Time;durP1;ratioP1;P1;durP2;ratioP2;P2;SDS_P1;SDS_P2;PMS_P1;PMS_P2;Temp;Humidity;BMP_temperature;BMP_pressure;BME280_temperature;BME280_humidity;BME280_pressure;Samples;Min_cycle;Max_cycle;Signal;HPM_P1;HPM_P2
2021/07/31 00:02:09;;;;;;;;;;;;;;;16.29;59.65;98682.78;5032793;28;19929;-60
2021/07/31 00:04:35;;;;;;;;;;;;;;;16.10;60.62;98689.00;5034240;28;20387;-60
2021/07/31 00:07:00;;;;;;;;;;;;;;;16.02;60.80;98686.94;5033311;28;19925;-60
2021/07/31 00:09:25;;;;;;;;;;;;;;;15.95;60.76;98681.91;5034251;28;19923;-60
2021/07/31 00:11:50;;;;;;;;;;;;;;;15.92;61.20;98681.66;5032706;28;19921;-60
2021/07/31 00:14:16;;;;;;;;;;;;;;;15.80;61.56;98694.78;5034385;28;19920;-60
2021/07/31 00:16:41;;;;;;;;;;;;;;;15.82;61.38;98692.59;5032187;28;19978;-60
2021/07/31 00:19:06;;;;;;;;;;;;;;;15.83;61.28;98695.03;5034076;28;19920;-60
2021/07/31 00:21:31;;;;;;;;;;;;;;;15.92;61.04;98697.88;5033620;28;19921;-60
2021/07/31 00:23:57;;;;;;;;;;;;;;;15.91;60.99;98697.06;5034071;28;20386;-60
2021/07/31 00:26:22;;;;;;;;;;;;;;;15.85;61.31;98698.25;5033535;28;20008;-61
2021/07/31 00:28:47;;;;;;;;;;;;;;;15.76;62.02;98705.38;5033918;28;20003;-60
2021/07/31 00:31:13;;;;;;;;;;;;;;;15.62;62.49;98705.22;5033452;28;19921;-61
2021/07/31 00:33:38;;;;;;;;;;;;;;;15.58;62.88;98704.22;5033906;28;19917;-60
2021/07/31 00:36:03;;;;;;;;;;;;;;;15.49;63.77;98701.31;5033488;28;19921;-61
2021/07/31 00:38:29;;;;;;;;;;;;;;;15.48;63.23;98704.34;5034012;28;20348;-60
2021/07/31 00:40:54;;;;;;;;;;;;;;;15.46;63.40;98701.13;5033352;28;19928;-60
2021/07/31 00:43:19;;;;;;;;;;;;;;;15.52;62.93;98706.19;5033778;28;20291;-60
2021/07/31 00:45:44;;;;;;;;;;;;;;;15.55;62.92;98710.19;5033402;28;19921;-60
2021/07/31 00:48:10;;;;;;;;;;;;;;;15.63;62.53;98706.06;5033624;28;20002;-60
2021/07/31 00:50:35;;;;;;;;;;;;;;;15.65;62.61;98706.56;5033146;28;20268;-60
2021/07/31 00:53:00;;;;;;;;;;;;;;;15.60;62.67;98712.00;5032243;28;19928;-61
2021/07/31 00:55:26;;;;;;;;;;;;;;;15.65;62.48;98715.47;5033489;28;20000;-61
2021/07/31 00:57:51;;;;;;;;;;;;;;;15.63;62.38;98725.75;5032536;28;19952;-61
2021/07/31 01:00:17;;;;;;;;;;;;;;;15.54;62.83;98716.69;5031909;28;20415;-65
2021/07/31 01:02:42;;;;;;;;;;;;;;;15.45;63.41;98715.69;5033491;28;19921;-61
2021/07/31 01:05:07;;;;;;;;;;;;;;;15.38;63.60;98720.66;5033302;28;19994;-61
2021/07/31 01:07:34;;;;;;;;;;;;;;;15.51;61.60;98695.66;5033334;28;19925;-60
2021/07/31 01:09:59;;;;;;;;;;;;;;;15.54;61.40;98720.19;5033262;28;19918;-60
2021/07/31 01:12:24;;;;;;;;;;;;;;;15.51;61.55;98726.16;5032759;28;19928;-61
2021/07/31 01:14:50;;;;;;;;;;;;;;;15.48;61.19;98725.94;5033389;28;20350;-61
2021/07/31 01:17:15;;;;;;;;;;;;;;;15.42;61.38;98730.56;5032922;28;19922;-61
2021/07/31 01:19:40;;;;;;;;;;;;;;;15.38;62.27;98720.66;5033290;28;20007;-61
2021/07/31 01:22:06;;;;;;;;;;;;;;;15.32;61.32;98726.09;5032832;28;19921;-61
2021/07/31 01:24:31;;;;;;;;;;;;;;;15.26;61.42;98732.63;5031520;28;20382;-61
2021/07/31 01:26:56;;;;;;;;;;;;;;;15.27;61.20;98726.13;5032786;28;19956;-61
2021/07/31 01:29:21;;;;;;;;;;;;;;;15.26;61.86;98726.44;5033205;28;19944;-61
2021/07/31 01:31:47;;;;;;;;;;;;;;;15.36;60.75;98714.72;5032711;28;20004;-61
2021/07/31 01:34:12;;;;;;;;;;;;;;;15.32;61.06;98717.19;5032619;28;19917;-60
2021/07/31 01:36:37;;;;;;;;;;;;;;;15.24;61.25;98715.91;5032761;28;20011;-61
2021/07/31 01:39:03;;;;;;;;;;;;;;;15.24;61.15;98715.91;5031690;28;19917;-61
2021/07/31 01:41:28;;;;;;;;;;;;;;;15.11;61.67;98713.88;5032660;28;20397;-60
2021/07/31 01:43:53;;;;;;;;;;;;;;;15.03;61.97;98714.50;5015259;28;20326;-60
2021/07/31 01:46:19;;;;;;;;;;;;;;;14.87;62.85;98720.00;5032717;28;20012;-60
2021/07/31 01:48:44;;;;;;;;;;;;;;;14.88;63.26;98712.75;5033014;28;19917;-60
2021/07/31 01:51:09;;;;;;;;;;;;;;;14.77;63.64;98717.41;5032355;28;20000;-61
2021/07/31 01:53:35;;;;;;;;;;;;;;;14.50;64.38;98717.84;5033231;28;20062;-61
2021/07/31 01:56:00;;;;;;;;;;;;;;;14.28;65.79;98715.59;5032686;28;19921;-61
2021/07/31 01:58:25;;;;;;;;;;;;;;;14.17;66.20;98719.41;5033032;28;19921;-61
2021/07/31 02:00:54;;;;;;;;;;;;;;;14.10;67.04;98725.09;5032538;28;19956;-61
2021/07/31 02:03:19;;;;;;;;;;;;;;;14.15;67.26;98721.56;5032761;28;19921;-61
2021/07/31 02:05:45;;;;;;;;;;;;;;;14.06;67.79;98718.66;5032445;28;20413;-61
2021/07/31 02:08:10;;;;;;;;;;;;;;;14.02;68.33;98718.41;5032932;28;19920;-61
2021/07/31 02:10:35;;;;;;;;;;;;;;;14.07;68.18;98722.16;5030981;28;20004;-61
2021/07/31 02:13:00;;;;;;;;;;;;;;;14.10;67.94;98724.28;5032755;28;19944;-60
2021/07/31 02:15:26;;;;;;;;;;;;;;;14.08;67.86;98723.75;5032360;28;19928;-61
2021/07/31 02:17:51;;;;;;;;;;;;;;;14.11;67.81;98715.16;5032300;28;19925;-61
2021/07/31 02:20:16;;;;;;;;;;;;;;;14.13;67.56;98713.78;5032179;28;20078;-61
2021/07/31 02:22:41;;;;;;;;;;;;;;;14.27;66.50;98715.84;5032640;28;19929;-60
2021/07/31 02:25:07;;;;;;;;;;;;;;;14.38;66.29;98717.41;5032479;28;19917;-61
2021/07/31 02:27:32;;;;;;;;;;;;;;;14.35;66.73;98715.25;5032760;28;20394;-61
2021/07/31 02:29:57;;;;;;;;;;;;;;;14.45;66.85;98715.19;5032565;28;20398;-61
2021/07/31 02:32:22;;;;;;;;;;;;;;;14.43;65.66;98717.38;5032237;28;19957;-60
2021/07/31 02:34:51;;;;;;;;;;;;;;;14.41;65.73;98709.56;5032598;28;19913;-60
2021/07/31 02:37:16;;;;;;;;;;;;;;;14.29;66.14;98716.38;5035948;28;19925;-61
2021/07/31 02:39:41;;;;;;;;;;;;;;;14.29;65.84;98711.78;5035992;28;19971;-61
2021/07/31 02:42:07;;;;;;;;;;;;;;;14.23;66.43;98708.34;5035516;28;19921;-61
2021/07/31 02:44:34;;;;;;;;;;;;;;;14.11;67.06;98704.38;5036033;28;19916;-60
2021/07/31 02:46:59;;;;;;;;;;;;;;;13.97;67.37;98702.25;5035525;28;19917;-61
2021/07/31 02:49:24;;;;;;;;;;;;;;;13.89;68.13;98700.16;5035750;28;19924;-61
2021/07/31 02:51:49;;;;;;;;;;;;;;;13.77;68.22;98700.47;5034155;28;19921;-61
2021/07/31 02:54:15;;;;;;;;;;;;;;;13.69;68.76;98692.16;5034746;28;19988;-61
2021/07/31 02:56:41;;;;;;;;;;;;;;;13.66;69.38;98692.72;5035361;28;19921;-61
2021/07/31 02:59:06;;;;;;;;;;;;;;;13.71;68.63;98698.09;5034446;28;20306;-61
2021/07/31 03:01:31;;;;;;;;;;;;;;;13.65;68.99;98697.28;5035231;28;20020;-61
2021/07/31 03:03:56;;;;;;;;;;;;;;;13.81;68.16;98689.97;5035352;28;19921;-61
2021/07/31 03:06:21;;;;;;;;;;;;;;;13.81;68.08;98689.97;5035102;28;20328;-61
2021/07/31 03:08:47;;;;;;;;;;;;;;;13.84;68.10;98691.31;5035501;28;19917;-61
2021/07/31 03:11:12;;;;;;;;;;;;;;;13.88;68.00;98690.47;5034843;28;20011;-61
2021/07/31 03:13:37;;;;;;;;;;;;;;;13.96;68.00;98692.59;5035424;28;20367;-61
2021/07/31 03:16:03;;;;;;;;;;;;;;;13.86;68.22;98692.63;5034922;28;20426;-61
2021/07/31 03:18:28;;;;;;;;;;;;;;;13.82;68.19;98686.97;5035241;28;19917;-61
2021/07/31 03:20:53;;;;;;;;;;;;;;;13.89;68.51;98688.59;5034759;28;19925;-61
2021/07/31 03:23:19;;;;;;;;;;;;;;;13.69;68.61;98687.59;5035078;28;20004;-61
2021/07/31 03:25:45;;;;;;;;;;;;;;;13.65;68.86;98686.50;5034487;28;19928;-61
2021/07/31 03:28:10;;;;;;;;;;;;;;;13.50;69.50;98692.75;5034916;28;19917;-61
2021/07/31 03:30:39;;;;;;;;;;;;;;;13.28;70.48;98690.44;5034763;28;20339;-60
2021/07/31 03:33:05;;;;;;;;;;;;;;;13.09;71.41;98689.34;5034880;28;19924;-61
2021/07/31 03:35:30;;;;;;;;;;;;;;;12.95;71.97;98692.63;5034615;28;19921;-60
2021/07/31 03:37:55;;;;;;;;;;;;;;;12.93;72.01;98702.03;5035091;28;19917;-61
2021/07/31 03:40:20;;;;;;;;;;;;;;;12.93;72.42;98696.66;5034441;28;20368;-61
2021/07/31 03:42:46;;;;;;;;;;;;;;;12.98;72.11;98701.19;5034913;28;20032;-61
2021/07/31 03:45:11;;;;;;;;;;;;;;;13.15;71.20;98697.16;5034299;28;19955;-61
2021/07/31 03:47:36;;;;;;;;;;;;;;;13.35;70.73;98700.88;5034466;28;19917;-61
2021/07/31 03:50:01;;;;;;;;;;;;;;;13.47;70.49;98701.41;5034173;28;20394;-61
2021/07/31 03:52:27;;;;;;;;;;;;;;;13.45;70.54;98711.63;5034861;28;19925;-61
2021/07/31 03:54:52;;;;;;;;;;;;;;;13.37;70.97;98702.22;5034675;28;20334;-61
2021/07/31 03:57:17;;;;;;;;;;;;;;;13.29;71.29;98710.88;5034198;28;19917;-60
2021/07/31 03:59:42;;;;;;;;;;;;;;;13.16;71.94;98706.81;5034420;28;19924;-60
2021/07/31 04:02:08;;;;;;;;;;;;;;;13.10;72.31;98712.47;5034088;28;19917;-61
2021/07/31 04:04:34;;;;;;;;;;;;;;;13.09;72.62;98711.69;5034243;28;20013;-61
2021/07/31 04:06:59;;;;;;;;;;;;;;;13.17;72.36;98711.13;5034118;28;20276;-61
2021/07/31 04:09:25;;;;;;;;;;;;;;;13.35;72.10;98714.34;5034231;28;20306;-61
2021/07/31 04:11:50;;;;;;;;;;;;;;;13.61;71.16;98714.28;5033959;28;19921;-60
2021/07/31 04:14:15;;;;;;;;;;;;;;;13.34;71.78;98715.44;5034190;28;19917;-61
2021/07/31 04:16:41;;;;;;;;;;;;;;;13.26;72.20;98721.34;5033856;28;19918;-61
2021/07/31 04:19:06;;;;;;;;;;;;;;;13.58;71.69;98729.91;5034071;28;19917;-61
2021/07/31 04:21:31;;;;;;;;;;;;;;;14.25;68.98;98729.59;5033865;28;19928;-61
2021/07/31 04:23:56;;;;;;;;;;;;;;;14.76;66.60;98732.00;5032964;28;19917;-60
2021/07/31 04:26:21;;;;;;;;;;;;;;;15.04;66.48;98737.69;5033200;28;19972;-60
2021/07/31 04:28:47;;;;;;;;;;;;;;;15.44;64.22;98736.50;5034384;28;19917;-61
2021/07/31 04:31:13;;;;;;;;;;;;;;;15.78;63.44;98737.53;5033631;28;20023;-61
2021/07/31 04:33:38;;;;;;;;;;;;;;;16.21;61.59;98743.72;5032624;28;19921;-61
2021/07/31 04:36:04;;;;;;;;;;;;;;;16.90;59.50;98744.09;5033739;28;19925;-61
2021/07/31 04:38:30;;;;;;;;;;;;;;;16.87;59.05;98741.94;5034133;28;20322;-61
2021/07/31 04:40:55;;;;;;;;;;;;;;;16.85;59.50;98738.75;5033431;28;19961;-61
2021/07/31 04:43:20;;;;;;;;;;;;;;;17.39;57.87;98737.25;5033836;28;19956;-61
2021/07/31 04:45:46;;;;;;;;;;;;;;;17.53;57.27;98739.19;5033445;28;19921;-61
2021/07/31 04:48:11;;;;;;;;;;;;;;;17.32;57.16;98744.97;5033616;28;19921;-61
2021/07/31 04:50:36;;;;;;;;;;;;;;;18.27;54.83;98739.88;5033280;28;19921;-60
2021/07/31 04:53:01;;;;;;;;;;;;;;;18.44;54.13;98738.41;5033693;28;20494;-60
2021/07/31 04:55:27;;;;;;;;;;;;;;;18.44;53.99;98741.13;5033094;28;19921;-61
2021/07/31 04:57:52;;;;;;;;;;;;;;;19.14;52.56;98737.03;5032865;28;19917;-61
2021/07/31 05:00:17;;;;;;;;;;;;;;;19.32;51.91;98743.34;5033058;28;20008;-60
2021/07/31 05:02:42;;;;;;;;;;;;;;;18.97;52.19;98740.47;5033172;28;20386;-61
2021/07/31 05:05:08;;;;;;;;;;;;;;;19.30;51.25;98740.19;5032872;28;19928;-59
2021/07/31 05:07:33;;;;;;;;;;;;;;;19.35;52.15;98735.41;5033399;28;20283;-59
2021/07/31 05:09:59;;;;;;;;;;;;;;;19.07;52.14;98739.38;5033179;28;19924;-59
2021/07/31 05:12:24;;;;;;;;;;;;;;;20.17;49.67;98745.94;5032618;28;19921;-59
2021/07/31 05:14:50;;;;;;;;;;;;;;;19.09;52.85;98740.69;5033182;28;19923;-60
2021/07/31 05:17:16;;;;;;;;;;;;;;;20.85;47.96;98744.38;5032748;28;19921;-59
2021/07/31 05:19:41;;;;;;;;;;;;;;;19.86;49.57;98746.81;5033180;28;19928;-59
2021/07/31 05:22:06;;;;;;;;;;;;;;;20.68;48.26;98744.41;5032661;28;19921;-59
2021/07/31 05:24:31;;;;;;;;;;;;;;;21.26;46.28;98745.75;5033231;28;20016;-59
2021/07/31 05:26:57;;;;;;;;;;;;;;;20.39;48.43;98756.72;5032730;28;19928;-59
2021/07/31 05:29:22;;;;;;;;;;;;;;;19.85;49.92;98753.38;5032742;28;20282;-59
2021/07/31 05:31:47;;;;;;;;;;;;;;;20.70;47.86;98750.34;5032625;28;19921;-59
2021/07/31 05:34:12;;;;;;;;;;;;;;;21.38;46.79;98747.00;5031636;28;19921;-60
2021/07/31 05:36:39;;;;;;;;;;;;;;;19.62;50.35;98755.34;5031395;28;19921;-59
2021/07/31 05:39:04;;;;;;;;;;;;;;;20.89;47.29;98756.25;5033218;28;19979;-59
2021/07/31 05:41:30;;;;;;;;;;;;;;;21.39;45.98;98754.06;5032586;28;19929;-60
2021/07/31 05:43:55;;;;;;;;;;;;;;;21.83;45.44;98757.44;5033029;28;19917;-61
2021/07/31 05:46:20;;;;;;;;;;;;;;;20.82;46.86;98750.50;5032473;28;20395;-59
2021/07/31 05:48:45;;;;;;;;;;;;;;;22.92;43.29;98755.75;5032845;28;19917;-61
2021/07/31 05:51:11;;;;;;;;;;;;;;;22.12;44.50;98752.00;5032410;28;19921;-61
2021/07/31 05:53:36;;;;;;;;;;;;;;;21.86;44.77;98763.03;5032865;28;19917;-61
2021/07/31 05:56:02;;;;;;;;;;;;;;;22.50;43.49;98770.22;5031079;28;19921;-59
2021/07/31 05:58:28;;;;;;;;;;;;;;;22.51;44.04;98768.28;5032879;28;19917;-60
2021/07/31 06:00:53;;;;;;;;;;;;;;;21.68;45.08;98777.88;5032354;28;20330;-61
2021/07/31 06:03:18;;;;;;;;;;;;;;;19.24;52.32;98763.13;5032503;28;19920;-60
2021/07/31 06:05:43;;;;;;;;;;;;;;;18.09;55.72;98767.91;5032567;28;19921;-60
2021/07/31 06:08:09;;;;;;;;;;;;;;;17.53;57.14;98766.28;5032072;28;19961;-60
2021/07/31 06:10:34;;;;;;;;;;;;;;;18.58;54.99;98768.25;5035313;28;19922;-60
2021/07/31 06:12:59;;;;;;;;;;;;;;;19.83;50.99;98775.44;5036323;28;19917;-60
2021/07/31 06:15:24;;;;;;;;;;;;;;;18.83;54.03;98777.72;5034843;28;19988;-60
2021/07/31 06:17:50;;;;;;;;;;;;;;;19.43;52.08;98774.59;5035865;28;20433;-60
2021/07/31 06:20:15;;;;;;;;;;;;;;;19.65;52.69;98790.06;5035877;28;19917;-59
2021/07/31 06:22:40;;;;;;;;;;;;;;;19.56;52.28;98781.06;5036307;28;19940;-60
2021/07/31 06:25:06;;;;;;;;;;;;;;;19.09;53.08;98780.63;5035703;28;19979;-59
2021/07/31 06:27:31;;;;;;;;;;;;;;;18.42;55.15;98778.63;5036128;28;19913;-60
2021/07/31 06:29:56;;;;;;;;;;;;;;;17.64;57.80;98794.78;5036007;28;19963;-60
2021/07/31 06:32:21;;;;;;;;;;;;;;;17.39;58.70;98791.44;5035650;28;19925;-60
2021/07/31 06:34:47;;;;;;;;;;;;;;;17.24;59.57;98791.69;5068215;28;19917;-60
2021/07/31 06:37:12;;;;;;;;;;;;;;;16.74;60.76;98789.47;5035702;28;20318;-60
2021/07/31 06:39:37;;;;;;;;;;;;;;;16.31;62.30;98780.63;5035991;28;19940;-60
2021/07/31 06:42:03;;;;;;;;;;;;;;;19.91;50.99;98775.78;5035443;28;19924;-60
2021/07/31 06:44:28;;;;;;;;;;;;;;;21.75;45.79;98775.44;5034646;28;19921;-61
2021/07/31 06:46:53;;;;;;;;;;;;;;;22.39;43.99;98783.47;5034967;28;19929;-60
2021/07/31 06:49:18;;;;;;;;;;;;;;;22.69;43.37;98779.88;5034508;28;19920;-61
2021/07/31 06:51:44;;;;;;;;;;;;;;;22.60;43.65;98771.78;5033732;28;19953;-61
2021/07/31 06:54:09;;;;;;;;;;;;;;;22.68;43.27;98772.81;5035376;28;19917;-59
2021/07/31 06:56:35;;;;;;;;;;;;;;;23.43;41.99;98764.56;5035384;28;19948;-59
2021/07/31 06:59:01;;;;;;;;;;;;;;;22.64;43.12;98774.63;5034430;28;19964;-59
2021/07/31 07:01:26;;;;;;;;;;;;;;;23.04;42.41;98756.63;5035258;28;19925;-60
2021/07/31 07:03:52;;;;;;;;;;;;;;;22.20;44.26;98755.03;5035391;28;20290;-60
2021/07/31 07:06:17;;;;;;;;;;;;;;;23.75;41.39;98764.88;5035019;28;19963;-60
2021/07/31 07:08:42;;;;;;;;;;;;;;;24.02;40.03;98763.41;5035790;28;19917;-60
2021/07/31 07:11:10;;;;;;;;;;;;;;;22.31;43.17;98769.88;5034945;28;19929;-60
2021/07/31 07:13:36;;;;;;;;;;;;;;;23.56;41.06;98770.88;5035634;28;19917;-61
2021/07/31 07:16:04;;;;;;;;;;;;;;;22.63;43.76;98768.38;5042047;28;20000;-60
2021/07/31 07:18:29;;;;;;;;;;;;;;;23.57;41.19;98772.47;5014256;28;20360;-61
2021/07/31 07:20:55;;;;;;;;;;;;;;;24.65;39.06;98769.25;5020759;28;19917;-58
2021/07/31 07:23:20;;;;;;;;;;;;;;;23.63;41.09;98769.16;5035273;28;19955;-61
2021/07/31 07:25:45;;;;;;;;;;;;;;;24.59;39.25;98767.91;5035048;28;19921;-61
2021/07/31 07:28:11;;;;;;;;;;;;;;;26.43;36.05;98766.75;5034611;28;20330;-61
2021/07/31 07:30:36;;;;;;;;;;;;;;;26.41;35.19;98768.25;5033051;28;19928;-59
2021/07/31 07:33:02;;;;;;;;;;;;;;;26.62;34.91;98767.97;5035155;28;19921;-61
2021/07/31 07:35:28;;;;;;;;;;;;;;;25.47;36.46;98776.22;5034539;28;19974;-59
2021/07/31 07:37:53;;;;;;;;;;;;;;;24.71;37.82;98773.34;5035098;28;20000;-61
2021/07/31 07:40:18;;;;;;;;;;;;;;;24.06;40.07;98777.97;5034352;28;20012;-61
2021/07/31 07:42:44;;;;;;;;;;;;;;;23.92;39.78;98761.13;5034818;28;19917;-61
2021/07/31 07:45:09;;;;;;;;;;;;;;;22.70;43.48;98774.09;5034349;28;19924;-61
2021/07/31 07:47:34;;;;;;;;;;;;;;;24.86;38.90;98768.25;5034583;28;19967;-61
2021/07/31 07:50:00;;;;;;;;;;;;;;;25.27;37.15;98771.75;5035100;28;20282;-61
2021/07/31 07:52:25;;;;;;;;;;;;;;;25.43;36.63;98774.53;5034397;28;20383;-61
2021/07/31 07:54:50;;;;;;;;;;;;;;;24.44;38.24;98763.13;5034536;28;20433;-61
2021/07/31 07:57:16;;;;;;;;;;;;;;;24.71;38.55;98761.56;5034162;28;19928;-59
2021/07/31 07:59:41;;;;;;;;;;;;;;;26.09;35.54;98762.06;5034367;28;19917;-61
2021/07/31 08:02:06;;;;;;;;;;;;;;;25.88;35.83;98763.13;5034061;28;19925;-58
2021/07/31 08:04:33;;;;;;;;;;;;;;;25.85;36.79;98763.84;5034243;28;19925;-61
2021/07/31 08:06:58;;;;;;;;;;;;;;;26.72;35.06;98769.34;5033991;28;20374;-61
2021/07/31 08:09:23;;;;;;;;;;;;;;;25.86;35.61;98765.47;5034380;28;19925;-61
2021/07/31 08:11:48;;;;;;;;;;;;;;;26.26;35.26;98767.16;5029375;28;19964;-61
2021/07/31 08:14:14;;;;;;;;;;;;;;;25.36;36.57;98762.22;5014423;28;20012;-61
2021/07/31 08:16:40;;;;;;;;;;;;;;;25.30;37.04;98760.88;5027519;28;19966;-61
2021/07/31 08:19:06;;;;;;;;;;;;;;;24.82;37.48;98761.91;5033878;28;20287;-61
2021/07/31 08:21:32;;;;;;;;;;;;;;;24.95;38.03;98777.94;5021232;28;19933;-60
2021/07/31 08:23:57;;;;;;;;;;;;;;;24.59;38.96;98784.34;5014331;28;19918;-60
2021/07/31 08:26:22;;;;;;;;;;;;;;;24.23;38.92;98785.97;5025240;28;19921;-60
2021/07/31 08:28:48;;;;;;;;;;;;;;;22.70;42.68;98781.50;5034008;28;19917;-60
2021/07/31 08:31:13;;;;;;;;;;;;;;;21.43;45.50;98776.84;5023495;28;20291;-60
2021/07/31 08:33:38;;;;;;;;;;;;;;;22.41;43.42;98780.41;5013447;28;19918;-60
2021/07/31 08:36:04;;;;;;;;;;;;;;;21.97;44.26;98783.38;5022566;28;19967;-60
2021/07/31 08:38:29;;;;;;;;;;;;;;;21.71;45.07;98786.19;5032521;28;19913;-60
2021/07/31 08:40:55;;;;;;;;;;;;;;;22.32;44.40;98779.69;5026085;28;19925;-60
2021/07/31 08:43:20;;;;;;;;;;;;;;;22.49;43.73;98787.75;5013964;28;19976;-60
2021/07/31 08:45:45;;;;;;;;;;;;;;;22.73;42.62;98775.34;5018413;28;19921;-60
2021/07/31 08:48:11;;;;;;;;;;;;;;;23.07;42.17;98790.69;5032430;28;19971;-60
2021/07/31 08:50:37;;;;;;;;;;;;;;;22.86;42.31;98779.72;5026821;28;20357;-60
2021/07/31 08:53:02;;;;;;;;;;;;;;;22.00;44.65;98787.38;5013997;28;19922;-60
2021/07/31 08:55:27;;;;;;;;;;;;;;;21.78;44.95;98793.09;5017165;28;20419;-60
2021/07/31 08:57:53;;;;;;;;;;;;;;;23.34;41.41;98792.03;5033593;28;19917;-60
2021/07/31 09:00:18;;;;;;;;;;;;;;;22.32;43.66;98796.84;5033039;28;19921;-60
2021/07/31 09:02:44;;;;;;;;;;;;;;;21.72;45.07;98793.28;5033435;28;20011;-60
2021/07/31 09:05:10;;;;;;;;;;;;;;;21.64;45.47;98798.75;5033147;28;19917;-60
2021/07/31 09:07:35;;;;;;;;;;;;;;;22.65;43.28;98801.59;5033584;28;20067;-60
2021/07/31 09:10:19;;;;;;;;;;;;;;;22.05;44.94;98800.81;5032717;28;19983;-61
2021/07/31 09:12:51;;;;;;;;;;;;;;;21.86;44.69;98798.50;5033334;28;19925;-61
2021/07/31 09:15:27;;;;;;;;;;;;;;;21.88;44.89;98800.91;5032965;28;19913;-60
2021/07/31 09:17:52;;;;;;;;;;;;;;;23.63;41.10;98803.94;5033543;28;19944;-61
2021/07/31 09:20:17;;;;;;;;;;;;;;;22.99;41.73;98805.22;5032562;28;20275;-61
2021/07/31 09:22:54;;;;;;;;;;;;;;;23.55;41.64;98804.84;5033526;28;20031;-61
2021/07/31 09:25:22;;;;;;;;;;;;;;;22.36;43.71;98802.44;5032748;28;19967;-60
2021/07/31 09:27:47;;;;;;;;;;;;;;;21.98;43.73;98801.34;5033149;28;19937;-60
2021/07/31 09:30:12;;;;;;;;;;;;;;;21.54;45.49;98802.63;5032713;28;19923;-60
2021/07/31 09:32:38;;;;;;;;;;;;;;;21.30;46.66;98806.66;5033176;28;19960;-61
2021/07/31 09:35:05;;;;;;;;;;;;;;;21.48;45.74;98804.72;5032830;28;19987;-60
2021/07/31 09:37:30;;;;;;;;;;;;;;;22.28;44.21;98814.22;5031812;28;19913;-61
2021/07/31 09:39:59;;;;;;;;;;;;;;;21.99;45.15;98818.53;5032913;28;19924;-60
2021/07/31 09:42:33;;;;;;;;;;;;;;;21.90;45.52;98809.56;5032503;28;19917;-60
2021/07/31 09:44:59;;;;;;;;;;;;;;;21.49;46.08;98809.06;5035167;28;19917;-60
2021/07/31 09:47:24;;;;;;;;;;;;;;;21.08;47.11;98812.31;5035420;28;20012;-61
2021/07/31 09:49:50;;;;;;;;;;;;;;;23.13;41.64;98804.94;5036929;28;20365;-60
2021/07/31 09:52:19;;;;;;;;;;;;;;;24.12;41.21;98812.22;5036472;28;19952;-60
2021/07/31 09:54:45;;;;;;;;;;;;;;;22.81;42.96;98804.53;5037070;28;19974;-60
2021/07/31 09:57:11;;;;;;;;;;;;;;;20.28;48.84;98809.81;5036385;28;19931;-61
2021/07/31 09:59:36;;;;;;;;;;;;;;;21.09;46.84;98812.00;5036757;28;19919;-60
2021/07/31 10:02:03;;;;;;;;;;;;;;;21.06;47.39;98798.19;5035104;28;19925;-60
2021/07/31 10:04:28;;;;;;;;;;;;;;;21.09;47.26;98813.91;5035046;28;19928;-60
2021/07/31 10:06:53;;;;;;;;;;;;;;;21.07;47.43;98816.16;5036135;28;20291;-60
2021/07/31 10:09:19;;;;;;;;;;;;;;;21.57;45.85;98803.91;5035259;28;19947;-60
2021/07/31 10:11:44;;;;;;;;;;;;;;;22.30;44.48;98817.44;5036209;28;19922;-60
2021/07/31 10:14:09;;;;;;;;;;;;;;;23.00;43.69;98817.75;5036549;28;20232;-60
2021/07/31 10:16:35;;;;;;;;;;;;;;;22.61;43.10;98806.94;5036224;28;20350;-60
2021/07/31 10:19:01;;;;;;;;;;;;;;;22.07;45.31;98814.16;5036357;28;19928;-60
2021/07/31 10:21:27;;;;;;;;;;;;;;;22.10;45.44;98808.81;5035731;28;19975;-61
2021/07/31 10:23:55;;;;;;;;;;;;;;;22.48;44.14;98815.38;5036174;28;20019;-60
2021/07/31 10:26:21;;;;;;;;;;;;;;;22.32;44.25;98815.16;5035750;28;19921;-60
2021/07/31 10:28:46;;;;;;;;;;;;;;;21.79;44.67;98808.31;5036333;28;20048;-61
2021/07/31 10:31:27;;;;;;;;;;;;;;;21.87;44.98;98811.03;5035837;28;20272;-61
2021/07/31 10:33:54;;;;;;;;;;;;;;;22.60;43.51;98816.25;5035982;28;19928;-60
2021/07/31 10:36:35;;;;;;;;;;;;;;;22.42;43.06;98814.78;5035769;28;19932;-60
2021/07/31 10:39:01;;;;;;;;;;;;;;;21.71;45.05;98813.47;5036218;28;19924;-60
2021/07/31 10:41:45;;;;;;;;;;;;;;;22.04;44.50;98821.06;5034267;28;19921;-60
2021/07/31 10:44:10;;;;;;;;;;;;;;;22.20;43.76;98813.13;5035971;28;19917;-60
2021/07/31 10:46:36;;;;;;;;;;;;;;;22.55;43.42;98819.19;5035516;28;19925;-61
2021/07/31 10:49:20;;;;;;;;;;;;;;;22.23;43.79;98820.66;5035926;28;19964;-60
2021/07/31 10:51:45;;;;;;;;;;;;;;;21.88;44.10;98818.06;5035385;28;19929;-61
2021/07/31 10:54:10;;;;;;;;;;;;;;;22.07;43.18;98817.69;5035824;28;19917;-61
2021/07/31 10:56:51;;;;;;;;;;;;;;;21.90;44.20;98812.28;5034357;28;19944;-61
2021/07/31 10:59:17;;;;;;;;;;;;;;;21.88;44.10;98820.00;5035673;28;19917;-61
2021/07/31 11:01:42;;;;;;;;;;;;;;;21.74;44.16;98815.56;5035341;28;19932;-60
2021/07/31 11:04:07;;;;;;;;;;;;;;;22.24;44.06;98814.09;5035496;28;19921;-61
2021/07/31 11:06:59;;;;;;;;;;;;;;;22.17;44.13;98822.75;5035194;28;19927;-61
2021/07/31 11:09:24;;;;;;;;;;;;;;;22.33;43.89;98825.75;5019510;28;19913;-61
2021/07/31 11:11:49;;;;;;;;;;;;;;;22.45;43.31;98824.25;5034978;28;19921;-60
2021/07/31 11:14:14;;;;;;;;;;;;;;;22.23;43.87;98808.94;5035532;28;19925;-61
2021/07/31 11:16:40;;;;;;;;;;;;;;;22.35;43.93;98809.84;5035062;28;20409;-60
2021/07/31 11:19:05;;;;;;;;;;;;;;;23.33;42.14;98816.97;5033591;28;19924;-61
2021/07/31 11:21:31;;;;;;;;;;;;;;;23.57;42.69;98810.78;5034943;28;20387;-60
2021/07/31 11:24:00;;;;;;;;;;;;;;;22.85;42.54;98813.66;5034002;28;20382;-60
2021/07/31 11:26:31;;;;;;;;;;;;;;;23.51;41.55;98821.09;5034858;28;19960;-61
2021/07/31 11:28:57;;;;;;;;;;;;;;;23.31;41.98;98806.34;5035206;28;19972;-61
2021/07/31 11:31:22;;;;;;;;;;;;;;;23.42;41.43;98806.75;5033389;28;19929;-61
2021/07/31 11:34:06;;;;;;;;;;;;;;;23.88;40.83;98813.78;5035051;28;20066;-60
2021/07/31 11:36:31;;;;;;;;;;;;;;;23.24;41.23;98800.66;5034988;28;20383;-60
2021/07/31 11:38:57;;;;;;;;;;;;;;;23.46;41.42;98813.13;5035224;28;19952;-61
2021/07/31 11:41:23;;;;;;;;;;;;;;;23.75;40.44;98816.88;5034639;28;20437;-61
2021/07/31 11:43:55;;;;;;;;;;;;;;;23.65;41.09;98816.13;5035056;28;19921;-61
2021/07/31 11:46:27;;;;;;;;;;;;;;;23.46;41.13;98810.38;5034611;28;19937;-61
2021/07/31 11:48:52;;;;;;;;;;;;;;;23.17;41.21;98800.41;5034847;28;19928;-61
2021/07/31 11:51:17;;;;;;;;;;;;;;;23.30;41.94;98796.56;5034143;28;19922;-61
2021/07/31 11:53:42;;;;;;;;;;;;;;;23.20;41.05;98805.97;5033563;28;19924;-61
2021/07/31 11:56:09;;;;;;;;;;;;;;;23.23;41.72;98808.03;5034384;28;19921;-61
2021/07/31 11:58:34;;;;;;;;;;;;;;;22.72;42.77;98812.00;5034319;28;20290;-60
2021/07/31 12:00:59;;;;;;;;;;;;;;;22.86;42.59;98811.72;5034264;28;19921;-60
2021/07/31 12:03:41;;;;;;;;;;;;;;;22.51;42.38;98811.97;5033234;28;20355;-60
2021/07/31 12:06:06;;;;;;;;;;;;;;;22.72;42.13;98812.00;5034180;28;19921;-60
2021/07/31 12:08:44;;;;;;;;;;;;;;;22.80;42.32;98809.19;5034320;28;19921;-61
2021/07/31 12:11:09;;;;;;;;;;;;;;;22.89;42.44;98811.88;5034133;28;19975;-60
2021/07/31 12:13:34;;;;;;;;;;;;;;;23.32;41.55;98809.91;5034325;28;19921;-60
2021/07/31 12:16:01;;;;;;;;;;;;;;;23.04;41.43;98821.44;5033122;28;20388;-60
2021/07/31 12:18:28;;;;;;;;;;;;;;;23.16;41.36;98820.66;5032928;28;19924;-61
2021/07/31 12:20:54;;;;;;;;;;;;;;;22.87;41.53;98827.81;5033777;28;19921;-60
2021/07/31 12:23:32;;;;;;;;;;;;;;;22.93;41.39;98823.72;5034239;28;19924;-61
2021/07/31 12:25:58;;;;;;;;;;;;;;;22.32;43.18;98831.56;5033772;28;20275;-60
2021/07/31 12:28:39;;;;;;;;;;;;;;;22.58;42.90;98823.97;5033988;28;19940;-60
2021/07/31 12:31:23;;;;;;;;;;;;;;;23.37;41.58;98815.97;5033653;28;19964;-61
2021/07/31 12:33:49;;;;;;;;;;;;;;;23.31;41.61;98820.03;5034103;28;20339;-61
2021/07/31 12:36:14;;;;;;;;;;;;;;;22.73;42.79;98817.13;5033696;28;20012;-61
2021/07/31 12:38:39;;;;;;;;;;;;;;;22.87;42.17;98821.53;5033890;28;19924;-61
2021/07/31 12:41:04;;;;;;;;;;;;;;;23.09;42.03;98825.84;5033375;28;19928;-61
2021/07/31 12:43:30;;;;;;;;;;;;;;;23.08;41.29;98824.28;5033790;28;19961;-60